Time;durP1;ratioP1;P1;durP2;ratioP2;P2;SDS_P1;SDS_P2;PMS_P1;PMS_P2;Temp;Humidity;BMP_temperature;BMP_pressure;BME280_temperature;BME280_humidity;BME280_pressure;Samples;Min_cycle;Max_cycle;Signal;HPM_P1;HPM_P2
2023/10/31 00:00:04;;;;;;;;;2.00;2.00;;;;;13.98;100.00;99896.06;4967650;28;45454;-70
2023/10/31 00:02:29;;;;;;;;;3.00;3.00;;;;;13.99;100.00;99900.44;4974781;28;45236;-72
2023/10/31 00:04:54;;;;;;;;;7.00;3.00;;;;;13.95;100.00;99896.09;4972101;28;72331;-72
2023/10/31 00:07:20;;;;;;;;;2.00;2.00;;;;;13.91;100.00;99889.13;4990352;28;55966;-69
2023/10/31 00:09:45;;;;;;;;;3.00;3.00;;;;;13.92;100.00;99889.97;4966780;28;67911;-69
2023/10/31 00:12:10;;;;;;;;;6.00;4.00;;;;;13.82;100.00;99891.91;4974707;28;57673;-72
2023/10/31 00:14:36;;;;;;;;;3.00;2.00;;;;;13.80;100.00;99881.34;4971526;28;45614;-71
2023/10/31 00:17:01;;;;;;;;;4.00;4.00;;;;;13.74;100.00;99875.25;4973429;28;67341;-69
2023/10/31 00:19:26;;;;;;;;;3.00;3.00;;;;;13.71;100.00;99880.63;4974225;28;66167;-71
2023/10/31 00:21:52;;;;;;;;;3.67;3.33;;;;;13.66;100.00;99888.66;4971812;28;45714;-70
2023/10/31 00:24:17;;;;;;;;;2.67;2.67;;;;;13.61;100.00;99886.06;4972211;28;75261;-69
2023/10/31 00:26:42;;;;;;;;;3.00;3.00;;;;;13.57;100.00;99891.44;4973603;28;57881;-69
2023/10/31 00:29:08;;;;;;;;;3.00;3.00;;;;;13.53;100.00;99892.38;4974149;28;45897;-70
2023/10/31 00:31:34;;;;;;;;;4.00;2.67;;;;;13.48;100.00;99888.97;4972494;28;59903;-70
2023/10/31 00:34:01;;;;;;;;;2.00;2.00;;;;;13.43;100.00;99885.50;4959719;28;47875;-69
2023/10/31 00:36:26;;;;;;;;;2.00;2.00;;;;;13.37;100.00;99886.47;4937687;28;45482;-69
2023/10/31 00:38:51;;;;;;;;;3.00;3.00;;;;;13.34;100.00;99887.38;4954925;28;45733;-71
2023/10/31 00:41:17;;;;;;;;;2.33;1.67;;;;;13.34;100.00;99892.69;4952687;28;66271;-68
2023/10/31 00:43:42;;;;;;;;;3.00;3.00;;;;;13.35;100.00;99893.56;4936964;28;76425;-70
2023/10/31 00:46:07;;;;;;;;;5.00;3.33;;;;;13.32;100.00;99898.94;4954883;28;45605;-72
2023/10/31 00:48:36;;;;;;;;;3.00;3.00;;;;;13.30;100.00;99898.94;4936386;28;67479;-70
2023/10/31 00:51:02;;;;;;;;;2.00;2.00;;;;;13.26;100.00;99899.00;4953554;28;45746;-71
2023/10/31 00:53:28;;;;;;;;;6.33;2.00;;;;;13.25;100.00;99897.25;4954179;28;45776;-70
2023/10/31 00:55:53;;;;;;;;;2.00;2.00;;;;;13.22;100.00;99903.50;4949422;28;70776;-69
2023/10/31 00:58:18;;;;;;;;;4.67;3.00;;;;;13.20;100.00;99907.00;4954092;28;65726;-71
2023/10/31 01:00:44;;;;;;;;;2.67;2.67;;;;;13.20;100.00;99910.53;4951040;28;68341;-68
2023/10/31 01:03:09;;;;;;;;;4.67;3.67;;;;;13.20;100.00;99904.34;4950452;28;71938;-72
2023/10/31 01:05:34;;;;;;;;;4.00;3.00;;;;;13.18;100.00;99908.81;4952469;28;68139;-72
2023/10/31 01:08:00;;;;;;;;;3.00;3.00;;;;;13.16;100.00;99903.53;4952954;28;45495;-72
2023/10/31 01:10:25;;;;;;;;;4.33;3.67;;;;;13.16;100.00;99902.69;4953594;28;64700;-71
2023/10/31 01:12:50;;;;;;;;;3.00;3.00;;;;;13.14;100.00;99910.63;4953473;28;71732;-71
2023/10/31 01:15:16;;;;;;;;;3.33;3.33;;;;;13.14;100.00;99912.41;4953995;28;45441;-72
2023/10/31 01:17:41;;;;;;;;;4.00;2.00;;;;;13.14;100.00;99912.41;4950396;28;49152;-73
2023/10/31 01:20:07;;;;;;;;;3.00;3.00;;;;;13.11;100.00;99913.34;4951359;28;49837;-71
2023/10/31 01:22:32;;;;;;;;;4.00;2.00;;;;;13.09;100.00;99923.94;4952364;28;45988;-71
2023/10/31 01:24:58;;;;;;;;;3.00;3.00;;;;;13.09;100.00;99915.13;4951932;28;45527;-71
2023/10/31 01:27:23;;;;;;;;;3.67;2.00;;;;;13.10;100.00;99920.41;4951568;28;45391;-71
2023/10/31 01:29:48;;;;;;;;;3.00;2.00;;;;;13.10;100.00;99915.13;4950903;28;60798;-75
2023/10/31 01:32:14;;;;;;;;;1.00;1.00;;;;;13.09;100.00;99918.63;4928793;28;74271;-72
2023/10/31 01:34:40;;;;;;;;;2.33;2.00;;;;;13.08;100.00;99911.59;4980149;28;45492;-72
2023/10/31 01:37:05;;;;;;;;;0.67;0.00;;;;;13.07;100.00;99923.09;4976746;28;45399;-73
2023/10/31 01:39:31;;;;;;;;;2.67;2.00;;;;;13.06;100.00;99923.13;4976564;28;47018;-74
2023/10/31 01:41:56;;;;;;;;;3.00;1.00;;;;;13.07;100.00;99930.16;4971968;28;45984;-71
2023/10/31 01:44:21;;;;;;;;;1.67;1.67;;;;;13.06;100.00;99928.44;4976790;28;45360;-71
2023/10/31 01:46:47;;;;;;;;;0.00;0.00;;;;;13.06;100.00;99933.72;4976353;28;60930;-71
2023/10/31 01:49:13;;;;;;;;;1.00;1.00;;;;;13.07;100.00;99939.00;4993266;28;45517;-73
2023/10/31 01:51:40;;;;;;;;;1.00;1.00;;;;;13.06;100.00;99929.31;4976215;28;45597;-70
2023/10/31 01:54:06;;;;;;;;;1.00;1.00;;;;;13.07;100.00;99936.34;4976736;28;45358;-75
2023/10/31 01:56:31;;;;;;;;;4.33;1.00;;;;;13.07;100.00;99933.69;4972055;28;61634;-74
2023/10/31 01:58:56;;;;;;;;;1.00;1.00;;;;;13.08;100.00;99937.22;4970867;28;65930;-71
2023/10/31 02:01:22;;;;;;;;;2.00;1.67;;;;;13.05;100.00;99938.16;4976529;28;46270;-72
2023/10/31 02:03:48;;;;;;;;;1.00;1.00;;;;;13.08;100.00;99945.16;4973978;28;45617;-71
2023/10/31 02:06:13;;;;;;;;;0.33;0.33;;;;;13.08;100.00;99947.81;4974801;28;45454;-71
2023/10/31 02:08:38;;;;;;;;;2.00;1.00;;;;;13.10;100.00;99948.66;4973958;28;60300;-72
2023/10/31 02:11:05;;;;;;;;;2.00;0.33;;;;;13.11;100.00;99955.75;4975781;28;50571;-71
2023/10/31 02:13:31;;;;;;;;;1.00;1.00;;;;;13.14;100.00;99957.47;4976498;28;45478;-74
2023/10/31 02:15:56;;;;;;;;;1.00;1.00;;;;;13.14;100.00;99952.16;4976022;28;45713;-73
2023/10/31 02:18:21;;;;;;;;;1.00;1.00;;;;;13.16;100.00;99953.03;4974329;28;45687;-72
2023/10/31 02:20:48;;;;;;;;;2.33;1.00;;;;;13.19;100.00;99956.50;4973777;28;73220;-71
2023/10/31 02:23:15;;;;;;;;;2.00;2.00;;;;;13.25;100.00;99964.41;4976729;28;45414;-74
2023/10/31 02:25:40;;;;;;;;;1.00;1.00;;;;;13.34;100.00;99966.06;4987161;28;45544;-74
2023/10/31 02:28:06;;;;;;;;;2.33;1.00;;;;;13.36;100.00;99966.91;4974987;28;64077;-71
2023/10/31 02:30:31;;;;;;;;;3.00;1.00;;;;;13.40;100.00;99975.69;4975149;28;45839;-73
2023/10/31 02:32:57;;;;;;;;;3.33;2.00;;;;;13.40;100.00;99968.63;4972119;28;46511;-73
2023/10/31 02:35:22;;;;;;;;;3.33;1.67;;;;;13.46;100.00;99976.47;4972174;28;46119;-74
2023/10/31 02:37:48;;;;;;;;;2.33;2.00;;;;;13.53;100.00;99972.84;4975826;28;45256;-71
2023/10/31 02:40:13;;;;;;;;;3.00;1.67;;;;;13.59;100.00;99974.53;4975424;28;45943;-72
2023/10/31 02:42:39;;;;;;;;;2.00;2.00;;;;;13.65;100.00;99968.25;4974271;28;45273;-71
2023/10/31 02:45:05;;;;;;;;;3.00;2.00;;;;;13.73;100.00;99969.88;4974412;28;45420;-71
2023/10/31 02:47:30;;;;;;;;;3.00;2.33;;;;;13.79;100.00;99967.13;4976542;28;45558;-72
2023/10/31 02:49:55;;;;;;;;;9.67;5.33;;;;;13.81;100.00;99964.47;4973199;28;74402;-71
2023/10/31 02:52:21;;;;;;;;;3.67;3.00;;;;;13.84;100.00;99957.31;4974682;28;46617;-72
2023/10/31 02:54:46;;;;;;;;;1.67;1.67;;;;;13.88;100.00;99963.44;4971968;28;62951;-71
2023/10/31 02:57:12;;;;;;;;;3.67;3.67;;;;;13.88;100.00;99952.84;4975269;28;57040;-74
2023/10/31 02:59:37;;;;;;;;;6.67;2.00;;;;;13.90;100.00;99964.28;4987306;28;48190;-71
2023/10/31 03:02:02;;;;;;;;;2.00;2.00;;;;;13.89;100.00;99960.75;4972653;28;67633;-70
2023/10/31 03:04:28;;;;;;;;;3.00;3.00;;;;;13.93;100.00;99958.94;4971186;28;68553;-70
2023/10/31 03:06:53;;;;;;;;;7.33;5.00;;;;;13.99;100.00;99957.97;4971922;28;56064;-71
2023/10/31 03:09:18;;;;;;;;;4.00;2.00;;;;;14.00;100.00;99965.03;4970569;28;77400;-70
2023/10/31 03:11:43;;;;;;;;;8.33;3.33;;;;;14.01;100.00;99954.41;4970649;28;70947;-73
2023/10/31 03:14:09;;;;;;;;;5.67;3.00;;;;;14.03;100.00;99960.53;4973281;28;69007;-71
2023/10/31 03:16:34;;;;;;;;;5.00;3.00;;;;;14.02;100.00;99969.41;4972049;28;45564;-70
2023/10/31 03:18:59;;;;;;;;;3.00;3.00;;;;;14.03;100.00;99984.44;4972845;28;73710;-70
2023/10/31 03:21:25;;;;;;;;;3.33;1.33;;;;;14.02;100.00;99971.19;4972699;28;48943;-70
2023/10/31 03:23:52;;;;;;;;;4.00;3.00;;;;;13.99;100.00;99980.06;4971765;28;45512;-70
2023/10/31 03:26:18;;;;;;;;;4.00;3.67;;;;;13.99;100.00;99971.25;4988741;28;45359;-73
2023/10/31 03:28:44;;;;;;;;;4.00;3.00;;;;;14.05;100.00;99987.06;4974015;28;45970;-70
2023/10/31 03:31:10;;;;;;;;;3.00;3.00;;;;;14.10;100.00;99987.84;4974371;28;45315;-72
2023/10/31 03:33:35;;;;;;;;;4.67;4.00;;;;;14.10;100.00;99994.03;4976256;28;45449;-72
2023/10/31 03:36:00;;;;;;;;;4.33;3.00;;;;;14.13;100.00;99990.47;4975257;28;47670;-73
2023/10/31 03:38:26;;;;;;;;;3.33;3.33;;;;;14.09;100.00;99994.94;4973941;28;68748;-71
2023/10/31 03:40:51;;;;;;;;;5.00;3.00;;;;;14.13;100.00;99999.31;4975482;28;55991;-74
2023/10/31 03:43:16;;;;;;;;;2.00;2.00;;;;;14.18;100.00;99999.25;4973953;28;45293;-72
2023/10/31 03:45:42;;;;;;;;;3.00;3.00;;;;;14.25;100.00;100005.31;4974357;28;67588;-72
2023/10/31 03:48:07;;;;;;;;;5.00;3.33;;;;;14.27;100.00;100004.38;4975069;28;52952;-74
2023/10/31 03:50:33;;;;;;;;;2.00;2.00;;;;;14.30;100.00;99998.13;4973702;28;45459;-71
2023/10/31 03:52:58;;;;;;;;;5.33;3.00;;;;;14.28;100.00;99999.97;4974329;28;47147;-73
2023/10/31 03:55:23;;;;;;;;;2.33;2.33;;;;;14.26;100.00;99994.66;4972511;28;67098;-75
2023/10/31 03:57:49;;;;;;;;;5.00;2.00;;;;;14.29;100.00;99996.41;4967953;28;46771;-72
2023/10/31 04:00:14;;;;;;;;;5.00;3.00;;;;;14.33;100.00;100004.28;4974515;28;68841;-71
2023/10/31 04:02:41;;;;;;;;;2.33;2.33;;;;;14.37;100.00;100015.72;4973425;28;45475;-71
2023/10/31 04:05:06;;;;;;;;;3.67;3.67;;;;;14.37;100.00;100019.25;4975207;28;45621;-72
2023/10/31 04:07:32;;;;;;;;;7.33;3.00;;;;;14.40;100.00;100019.19;4973333;28;45979;-71
2023/10/31 04:09:57;;;;;;;;;5.00;3.00;;;;;14.46;100.00;100022.66;4972706;28;45481;-73
2023/10/31 04:12:22;;;;;;;;;4.00;4.00;;;;;14.45;100.00;100020.91;4963521;28;45351;-74
2023/10/31 04:14:48;;;;;;;;;6.00;3.00;;;;;14.44;100.00;100028.00;4987357;28;62698;-71
2023/10/31 04:17:13;;;;;;;;;2.67;2.67;;;;;14.46;100.00;100031.50;4973759;28;73382;-72
2023/10/31 04:19:39;;;;;;;;;6.00;3.00;;;;;14.49;100.00;100031.47;4973762;28;64589;-71
2023/10/31 04:22:04;;;;;;;;;2.00;2.00;;;;;14.48;100.00;100032.38;4974175;28;45400;-70
2023/10/31 04:24:29;;;;;;;;;3.67;2.33;;;;;14.49;100.00;100039.47;4973416;28;46766;-70
2023/10/31 04:26:55;;;;;;;;;3.00;3.00;;;;;14.52;100.00;100039.38;4974390;28;46811;-74
2023/10/31 04:29:20;;;;;;;;;2.67;2.67;;;;;14.50;100.00;100038.53;4974300;28;73328;-71
2023/10/31 04:31:45;;;;;;;;;3.67;3.00;;;;;14.54;100.00;100039.34;4971460;28;53326;-71
2023/10/31 04:34:11;;;;;;;;;4.33;2.67;;;;;14.56;100.00;100046.41;4973869;28;62203;-70
2023/10/31 04:36:36;;;;;;;;;3.00;3.00;;;;;14.58;100.00;100054.34;4973789;28;46639;-71
2023/10/31 04:39:01;;;;;;;;;2.00;2.00;;;;;14.62;100.00;100053.38;4966408;28;70013;-72
2023/10/31 04:41:27;;;;;;;;;2.67;1.00;;;;;14.62;100.00;100056.91;4974242;28;45517;-73
2023/10/31 04:43:52;;;;;;;;;3.67;3.33;;;;;14.71;100.00;100057.66;4968477;28;45465;-71
2023/10/31 04:46:17;;;;;;;;;4.00;3.00;;;;;14.70;100.00;100062.09;4972822;28;69446;-73
2023/10/31 04:48:43;;;;;;;;;3.00;3.00;;;;;14.71;100.00;100050.56;4973658;28;62436;-72
2023/10/31 04:51:08;;;;;;;;;3.33;2.67;;;;;14.75;100.00;100057.56;4972328;28;46017;-71
2023/10/31 04:53:34;;;;;;;;;2.00;2.00;;;;;14.76;100.00;100058.47;4972943;28;65379;-70
2023/10/31 04:56:00;;;;;;;;;5.67;3.00;;;;;14.72;100.00;100065.59;4972746;28;46826;-71
2023/10/31 04:58:25;;;;;;;;;7.33;3.67;;;;;14.71;100.00;100063.84;4971322;28;45558;-71
2023/10/31 05:00:50;;;;;;;;;6.00;4.00;;;;;14.76;100.00;100071.75;4973492;28;46778;-71
2023/10/31 05:03:16;;;;;;;;;5.33;2.67;;;;;14.74;100.00;100065.56;4973418;28;63497;-70
2023/10/31 05:05:41;;;;;;;;;4.00;4.00;;;;;14.74;100.00;100078.84;4971506;28;75711;-70
2023/10/31 05:08:07;;;;;;;;;3.00;3.00;;;;;14.76;100.00;100077.94;4968460;28;67026;-72
2023/10/31 05:10:32;;;;;;;;;6.33;3.00;;;;;14.77;100.00;100076.16;4971438;28;63616;-73
2023/10/31 05:12:57;;;;;;;;;5.67;3.00;;;;;14.77;100.00;100071.72;4975989;28;65667;-71
2023/10/31 05:15:22;;;;;;;;;6.00;4.00;;;;;14.76;100.00;100069.09;4975302;28;67473;-71
2023/10/31 05:17:48;;;;;;;;;10.33;3.00;;;;;14.79;100.00;100071.66;4974655;28;71968;-70
2023/10/31 05:20:13;;;;;;;;;6.33;3.00;;;;;14.80;100.00;100074.28;4978378;28;45468;-71
2023/10/31 05:22:40;;;;;;;;;3.00;3.00;;;;;14.76;100.00;100077.94;4976518;28;45438;-73
2023/10/31 05:25:06;;;;;;;;;3.33;2.67;;;;;14.74;100.00;100074.41;4975067;28;45808;-71
2023/10/31 05:27:31;;;;;;;;;5.00;4.00;;;;;14.82;100.00;100074.28;4977209;28;45271;-70
2023/10/31 05:29:56;;;;;;;;;6.33;4.00;;;;;14.84;100.00;100086.63;4973650;28;61717;-70
2023/10/31 05:32:22;;;;;;;;;3.00;3.00;;;;;14.79;100.00;100083.19;4977638;28;60603;-74
2023/10/31 05:34:47;;;;;;;;;7.33;3.00;;;;;14.82;100.00;100098.22;4976940;28;45708;-71
2023/10/31 05:37:12;;;;;;;;;3.33;3.00;;;;;14.82;100.00;100092.88;4976207;28;45398;-70
2023/10/31 05:39:38;;;;;;;;;5.00;4.00;;;;;14.83;100.00;100098.16;4976126;28;68242;-71
2023/10/31 05:42:03;;;;;;;;;3.00;3.00;;;;;14.79;100.00;100095.59;4976942;28;67477;-71
2023/10/31 05:44:29;;;;;;;;;3.00;3.00;;;;;14.86;100.00;100099.88;4976340;28;46587;-72
2023/10/31 05:46:54;;;;;;;;;4.00;4.00;;;;;14.86;100.00;100098.13;4975501;28;59731;-74
2023/10/31 05:49:19;;;;;;;;;4.00;3.00;;;;;14.86;100.00;100099.88;4977215;28;46599;-70
2023/10/31 05:51:50;;;;;;;;;5.67;4.00;;;;;14.88;100.00;100092.78;4976774;28;50136;-71
2023/10/31 05:54:15;;;;;;;;;3.00;3.00;;;;;14.93;100.00;100093.56;4976457;28;45939;-73
2023/10/31 05:56:42;;;;;;;;;4.00;4.00;;;;;14.91;100.00;100101.56;4974967;28;72908;-71
2023/10/31 05:59:07;;;;;;;;;4.33;3.00;;;;;14.91;100.00;100100.66;4976197;28;45285;-72
2023/10/31 06:01:32;;;;;;;;;5.00;3.00;;;;;14.92;100.00;100105.09;4972734;28;53014;-70
2023/10/31 06:03:58;;;;;;;;;3.00;3.00;;;;;14.89;100.00;100094.53;4975512;28;74711;-70
2023/10/31 06:06:23;;;;;;;;;7.00;4.00;;;;;14.89;100.00;100095.41;4972372;28;70961;-70
2023/10/31 06:08:48;;;;;;;;;4.33;4.00;;;;;14.93;100.00;100096.22;4974300;28;50319;-71
2023/10/31 06:11:15;;;;;;;;;3.00;3.00;;;;;14.92;100.00;100091.81;4974569;28;61623;-70
2023/10/31 06:13:40;;;;;;;;;4.00;4.00;;;;;14.94;100.00;100095.31;4972897;28;47966;-70
2023/10/31 06:16:07;;;;;;;;;5.00;3.33;;;;;14.92;100.00;100094.47;4973526;28;46118;-70
2023/10/31 06:18:32;;;;;;;;;5.00;4.00;;;;;14.93;100.00;100090.91;4977665;28;45430;-70
2023/10/31 06:20:58;;;;;;;;;4.67;4.00;;;;;14.94;100.00;100106.81;4972139;28;63519;-73
2023/10/31 06:23:23;;;;;;;;;5.33;3.00;;;;;14.94;100.00;100097.97;4968903;28;74351;-71
2023/10/31 06:25:48;;;;;;;;;3.00;3.00;;;;;14.94;100.00;100100.63;4974633;28;72193;-69
2023/10/31 06:28:14;;;;;;;;;3.00;3.00;;;;;14.96;100.00;100103.25;4974762;28;58490;-72
2023/10/31 06:30:39;;;;;;;;;8.00;3.00;;;;;14.95;100.00;100097.06;4975413;28;54959;-72
2023/10/31 06:33:07;;;;;;;;;5.67;3.67;;;;;14.94;100.00;100109.47;5083128;22;73599;-70
2023/10/31 06:35:32;;;;;;;;;2.33;2.33;;;;;14.93;100.00;100104.19;4958043;28;45799;-73
2023/10/31 06:37:58;;;;;;;;;6.33;4.67;;;;;14.93;100.00;100117.50;4956224;28;62394;-69
2023/10/31 06:40:24;;;;;;;;;7.67;4.00;;;;;14.94;100.00;100120.13;4961079;28;45414;-70
2023/10/31 06:42:50;;;;;;;;;4.00;3.00;;;;;14.97;100.00;100118.28;4957133;28;46410;-70
2023/10/31 06:45:15;;;;;;;;;3.33;3.00;;;;;14.99;100.00;100121.81;4957144;28;47235;-70
2023/10/31 06:47:41;;;;;;;;;6.00;3.00;;;;;14.98;100.00;100114.75;4977687;28;45360;-70
2023/10/31 06:50:08;;;;;;;;;4.00;2.67;;;;;14.94;100.00;100121.91;4962188;28;45637;-73
2023/10/31 06:52:33;;;;;;;;;4.00;3.00;;;;;14.96;100.00;100120.06;4958179;28;45755;-71
2023/10/31 06:54:58;;;;;;;;;4.67;2.00;;;;;14.96;100.00;100119.19;4981422;28;45502;-72
2023/10/31 06:57:24;;;;;;;;;3.00;3.00;;;;;14.97;100.00;100118.28;4973099;28;67757;-71
2023/10/31 06:59:49;;;;;;;;;5.00;2.00;;;;;14.96;100.00;100113.88;4959768;28;66144;-70
2023/10/31 07:02:14;;;;;;;;;4.00;3.00;;;;;15.02;100.00;100124.41;4955598;28;68613;-70
2023/10/31 07:04:40;;;;;;;;;2.67;2.00;;;;;15.02;100.00;100130.63;4956794;28;45460;-73
2023/10/31 07:07:05;;;;;;;;;2.00;2.00;;;;;15.06;100.00;100128.75;4960734;28;45498;-70
2023/10/31 07:09:30;;;;;;;;;5.00;2.00;;;;;15.05;100.00;100132.34;4978502;28;45671;-70
2023/10/31 07:11:56;;;;;;;;;4.33;2.00;;;;;15.06;100.00;100140.28;4957097;28;65910;-70
2023/10/31 07:14:21;;;;;;;;;4.67;2.00;;;;;15.12;100.00;100133.97;4951045;28;71255;-73
2023/10/31 07:16:48;;;;;;;;;4.33;3.00;;;;;15.15;100.00;100149.88;4959567;28;45598;-70
2023/10/31 07:19:13;;;;;;;;;3.33;2.00;;;;;15.15;100.00;100148.09;4955966;28;45562;-71
2023/10/31 07:21:39;;;;;;;;;3.00;3.00;;;;;15.18;100.00;100156.03;4969326;28;72392;-73
2023/10/31 07:24:04;;;;;;;;;6.00;3.00;;;;;15.22;100.00;100161.25;4953764;28;73764;-70
2023/10/31 07:26:30;;;;;;;;;3.00;2.00;;;;;15.23;100.00;100173.66;4955849;28;45699;-72
2023/10/31 07:28:55;;;;;;;;;2.00;2.00;;;;;15.20;100.00;100156.84;4962846;28;62301;-72
2023/10/31 07:31:21;;;;;;;;;3.67;2.67;;;;;15.25;100.00;100163.88;4974273;28;46225;-71
2023/10/31 07:33:47;;;;;;;;;2.00;2.00;;;;;15.28;100.00;100172.66;4969475;28;45517;-72
2023/10/31 07:36:13;;;;;;;;;2.00;1.00;;;;;15.27;100.00;100170.91;4956273;28;66798;-70
2023/10/31 07:38:38;;;;;;;;;4.00;2.00;;;;;15.34;100.00;100166.34;4972101;28;45503;-70
2023/10/31 07:41:03;;;;;;;;;4.00;2.00;;;;;15.35;100.00;100168.13;4953383;28;73809;-70
2023/10/31 07:43:29;;;;;;;;;2.33;2.33;;;;;15.34;100.00;100177.88;4955571;28;56113;-71
2023/10/31 07:45:54;;;;;;;;;5.67;2.33;;;;;15.37;100.00;100175.16;4950793;28;45500;-70
2023/10/31 07:48:19;;;;;;;;;2.00;2.00;;;;;15.38;100.00;100186.66;4955535;28;68400;-72
2023/10/31 07:50:45;;;;;;;;;2.67;2.00;;;;;15.43;100.00;100172.38;4970611;28;46535;-74
2023/10/31 07:53:10;;;;;;;;;4.67;3.00;;;;;15.43;100.00;100177.69;4953725;28;71731;-72
2023/10/31 07:55:35;;;;;;;;;1.00;1.00;;;;;15.40;100.00;100179.56;4955416;28;62396;-70
2023/10/31 07:58:01;;;;;;;;;3.00;1.00;;;;;15.41;100.00;100183.97;4957023;28;66090;-70
2023/10/31 08:00:27;;;;;;;;;3.00;2.00;;;;;15.40;100.00;100195.50;4957228;28;45503;-71
2023/10/31 08:02:52;;;;;;;;;4.00;1.33;;;;;15.40;100.00;100195.50;4958059;28;45474;-70
2023/10/31 08:05:17;;;;;;;;;2.33;0.00;;;;;15.41;100.00;100192.81;4959488;28;45359;-72
2023/10/31 08:07:43;;;;;;;;;4.33;2.00;;;;;15.45;100.00;100196.31;4960570;28;54123;-71
2023/10/31 08:10:08;;;;;;;;;1.33;1.33;;;;;15.53;100.00;100209.44;4960152;28;45884;-73
2023/10/31 08:12:34;;;;;;;;;2.00;1.00;;;;;15.52;100.00;100213.91;4951428;28;45443;-70
2023/10/31 08:15:00;;;;;;;;;1.33;1.33;;;;;15.50;100.00;100206.84;4954888;28;45543;-73
2023/10/31 08:17:26;;;;;;;;;0.00;0.00;;;;;15.48;100.00;100212.19;4954886;28;45472;-71
2023/10/31 08:19:51;;;;;;;;;2.00;1.00;;;;;15.50;100.00;100222.81;4956292;28;46332;-71
2023/10/31 08:22:16;;;;;;;;;1.00;1.00;;;;;15.47;100.00;100221.09;4955050;28;46557;-70
2023/10/31 08:24:42;;;;;;;;;2.67;1.00;;;;;15.47;100.00;100226.41;4953155;28;68625;-70
2023/10/31 08:27:07;;;;;;;;;2.67;1.00;;;;;15.48;100.00;100222.84;4952021;28;45620;-70
2023/10/31 08:29:33;;;;;;;;;3.67;1.00;;;;;15.49;100.00;100229.03;4955833;28;60465;-70
2023/10/31 08:31:58;;;;;;;;;2.00;1.00;;;;;15.52;100.00;100237.84;4969499;28;65012;-71
2023/10/31 08:34:23;;;;;;;;;1.67;1.00;;;;;15.54;100.00;100243.13;4954099;28;58964;-72
2023/10/31 08:36:52;;;;;;;;;1.00;1.00;;;;;15.45;100.00;100230.91;4955375;28;45650;-71
2023/10/31 08:39:17;;;;;;;;;4.67;2.00;;;;;15.45;100.00;100236.22;4956758;28;46022;-71
2023/10/31 08:41:53;;;;;;;;;2.00;1.67;;;;;15.56;100.00;100244.00;4957270;28;45546;-72
2023/10/31 08:44:18;;;;;;;;;2.00;2.00;;;;;15.61;100.00;100251.00;4955341;28;45519;-70
2023/10/31 08:46:44;;;;;;;;;1.00;1.00;;;;;15.65;100.00;100252.69;4971151;28;45563;-74
2023/10/31 08:49:09;;;;;;;;;1.67;1.00;;;;;15.64;100.00;100250.06;4956201;28;53505;-70
2023/10/31 08:51:34;;;;;;;;;1.00;1.00;;;;;15.71;100.00;100265.00;4975367;28;45542;-73
2023/10/31 08:54:00;;;;;;;;;1.00;1.00;;;;;15.72;100.00;100258.81;4956500;28;45474;-72
2023/10/31 08:56:27;;;;;;;;;1.00;1.00;;;;;15.73;100.00;100254.34;4952939;28;45337;-73
2023/10/31 08:58:52;;;;;;;;;2.00;1.00;;;;;15.73;100.00;100268.53;4954195;28;48439;-72
2023/10/31 09:01:18;;;;;;;;;3.00;1.00;;;;;15.75;100.00;100266.72;4959473;28;45458;-71
2023/10/31 09:03:44;;;;;;;;;1.00;1.00;;;;;15.77;100.00;100269.38;4969239;28;45620;-70
2023/10/31 09:06:10;;;;;;;;;4.67;1.00;;;;;15.75;100.00;100265.84;4952711;28;45472;-72
2023/10/31 09:08:36;;;;;;;;;2.00;1.00;;;;;15.69;100.00;100267.69;4952577;28;45959;-70
2023/10/31 09:11:03;;;;;;;;;6.33;1.33;;;;;15.67;100.00;100273.97;4955397;28;45493;-70
2023/10/31 09:13:28;;;;;;;;;2.33;1.00;;;;;15.67;100.00;100276.63;4953808;28;45497;-71
2023/10/31 09:15:54;;;;;;;;;2.67;2.00;;;;;15.69;100.00;100281.00;4954983;28;45514;-70
2023/10/31 09:18:19;;;;;;;;;4.00;2.00;;;;;15.75;100.00;100292.44;4952542;28;46479;-70
2023/10/31 09:20:44;;;;;;;;;3.67;0.67;;;;;15.79;100.00;100294.16;4950738;28;47208;-70
2023/10/31 09:23:10;;;;;;;;;2.67;1.00;;;;;15.79;100.00;100297.69;4956552;28;45296;-71
2023/10/31 09:25:35;;;;;;;;;3.00;2.00;;;;;15.72;100.00;100304.03;4960212;28;45503;-71
2023/10/31 09:28:00;;;;;;;;;2.00;2.00;;;;;15.75;100.00;100298.66;4953365;28;45934;-70
2023/10/31 09:30:26;;;;;;;;;4.00;1.00;;;;;15.77;100.00;100307.50;4952558;28;65794;-70
2023/10/31 09:32:52;;;;;;;;;3.33;3.00;;;;;15.77;100.00;100304.84;4955641;28;45515;-69
2023/10/31 09:35:17;;;;;;;;;3.67;2.00;;;;;15.81;100.00;100310.97;4970887;28;45485;-69
2023/10/31 09:37:43;;;;;;;;;3.00;1.67;;;;;15.83;100.00;100310.03;4969263;28;45563;-69
2023/10/31 09:40:10;;;;;;;;;3.00;2.00;;;;;15.86;100.00;100309.97;4954955;28;45348;-68
2023/10/31 09:42:36;;;;;;;;;5.00;1.67;;;;;15.92;100.00;100307.19;4955518;28;45538;-68
2023/10/31 09:45:01;;;;;;;;;6.00;2.00;;;;;15.95;100.00;100306.25;4968627;28;45471;-68
2023/10/31 09:47:27;;;;;;;;;4.00;1.00;;;;;15.99;100.00;100302.66;4957835;28;45930;-69
2023/10/31 09:49:52;;;;;;;;;2.00;2.00;;;;;16.04;100.00;100313.22;4960230;28;45316;-71
2023/10/31 09:52:20;;;;;;;;;1.33;1.33;;;;;16.11;100.00;100323.69;4968962;28;45645;-72
2023/10/31 09:54:47;;;;;;;;;4.00;2.00;;;;;16.19;100.00;100319.09;4969191;28;45444;-69
2023/10/31 09:57:14;;;;;;;;;1.00;1.00;;;;;16.28;100.00;100330.47;4955746;28;45722;-69
2023/10/31 09:59:39;;;;;;;;;5.00;2.00;;;;;16.36;100.00;100333.88;4956624;28;58214;-69
2023/10/31 10:02:05;;;;;;;;;4.33;2.00;;;;;16.46;100.00;100333.66;4956369;28;45502;-71
2023/10/31 10:04:30;;;;;;;;;1.33;0.00;;;;;16.50;100.00;100337.09;4956732;28;45677;-70
2023/10/31 10:07:01;;;;;;;;;1.00;1.00;;;;;16.53;100.00;100334.38;4960396;28;45400;-72
2023/10/31 10:09:27;;;;;;;;;1.67;1.67;;;;;16.45;100.00;100325.66;4957793;28;45619;-69
2023/10/31 10:11:53;;;;;;;;;1.00;1.00;;;;;16.36;100.00;100332.06;4973519;28;45388;-69
2023/10/31 10:14:18;;;;;;;;;0.67;0.67;;;;;16.32;100.00;100329.50;4973047;28;45452;-69
2023/10/31 10:16:44;;;;;;;;;0.67;0.67;;;;;16.28;100.00;100334.00;4972495;28;45909;-70
2023/10/31 10:19:19;;;;;;;;;2.00;1.00;;;;;16.29;100.00;100330.44;4959501;28;45210;-68
2023/10/31 10:21:56;;;;;;;;;2.00;1.00;;;;;16.28;100.00;100339.34;4968680;28;45483;-69
2023/10/31 10:24:22;;;;;;;;;1.00;1.00;;;;;16.28;100.00;100341.13;4979569;28;45588;-68
2023/10/31 10:26:48;;;;;;;;;1.00;1.00;;;;;16.37;100.00;100340.94;4959049;28;45904;-70
2023/10/31 10:29:14;;;;;;;;;3.00;1.00;;;;;16.41;100.00;100342.66;4980109;28;46890;-68
2023/10/31 10:31:40;;;;;;;;;2.67;0.67;;;;;16.43;100.00;100335.47;4958365;28;45574;-71
2023/10/31 10:34:06;;;;;;;;;5.67;1.00;;;;;16.48;100.00;100339.81;4954233;28;45463;-72
2023/10/31 10:36:33;;;;;;;;;4.00;1.00;;;;;16.57;100.00;100346.75;4971890;28;47577;-69
2023/10/31 10:38:58;;;;;;;;;1.00;1.00;;;;;16.67;100.00;100353.63;4978015;28;45475;-69
2023/10/31 10:41:28;;;;;;;;;4.00;1.00;;;;;16.70;100.00;100342.88;4956501;28;45718;-68
2023/10/31 10:43:58;;;;;;;;;1.00;1.00;;;;;16.74;100.00;100354.41;4959095;28;45689;-68
2023/10/31 10:46:25;;;;;;;;;2.00;2.00;;;;;16.78;100.00;100353.44;4969015;28;46049;-73
2023/10/31 10:48:57;;;;;;;;;2.00;1.00;;;;;16.81;100.00;100355.13;4970328;28;45368;-70
2023/10/31 10:51:26;;;;;;;;;0.00;0.00;;;;;16.84;100.00;100355.09;4972889;28;45453;-69
2023/10/31 10:54:23;;;;;;;;;1.33;1.33;;;;;16.88;100.00;100362.06;4973813;28;45355;-69
2023/10/31 10:56:58;;;;;;;;;2.00;1.00;;;;;16.94;100.00;100364.63;4956707;28;45416;-70
2023/10/31 10:59:38;;;;;;;;;1.00;1.00;;;;;16.94;100.00;100372.63;4974847;28;45499;-70
2023/10/31 11:02:06;;;;;;;;;0.67;0.67;;;;;17.00;100.00;100377.81;4957457;28;45413;-70
2023/10/31 11:04:32;;;;;;;;;2.00;1.00;;;;;17.03;100.00;100367.94;4955767;28;45516;-69
2023/10/31 11:06:58;;;;;;;;;3.33;1.00;;;;;17.09;100.00;100380.25;4955266;28;45621;-69
2023/10/31 11:09:23;;;;;;;;;3.33;0.67;;;;;17.10;100.00;100383.81;4956268;28;47536;-72
2023/10/31 11:11:51;;;;;;;;;1.00;0.00;;;;;17.11;100.00;100375.78;4969503;28;45380;-69